createdAt,value
2023-01-27T00:00:36.829Z,84.80
2023-01-27T00:04:28.566Z,87.20
2023-01-27T00:08:01.293Z,100.00
2023-01-27T00:12:21.695Z,75.50
2023-01-27T00:16:57.559Z,64.20
2023-01-27T00:21:00.974Z,62.00
2023-01-27T00:24:59.453Z,55.40
2023-01-27T00:28:42.514Z,55.40
2023-01-27T00:33:08.447Z,43.50
2023-01-27T00:37:12.586Z,36.30
2023-01-27T00:41:27.248Z,27.10
2023-01-27T00:45:39.725Z,33.70
2023-01-27T00:53:34.253Z,45.40
2023-01-27T00:57:36.293Z,48.60
2023-01-27T01:01:35.079Z,32.40
2023-01-27T01:10:01.249Z,57.10
2023-01-27T01:14:01.402Z,48.70
2023-01-27T01:18:05.745Z,33.30
2023-01-27T01:21:49.619Z,43.90
2023-01-27T01:25:49.975Z,69.60
2023-01-27T01:30:17.248Z,42.90
2023-01-27T01:34:11.873Z,67.60
2023-01-27T01:38:09.405Z,46.00
2023-01-27T01:42:03.558Z,45.20
2023-01-27T01:51:21.196Z,30.90
2023-01-27T01:55:30.756Z,33.60
2023-01-27T01:59:41.271Z,53.10
2023-01-27T02:03:47.639Z,59.70
2023-01-27T02:08:03.537Z,66.30
2023-01-27T02:12:16.016Z,28.60
2023-01-27T02:16:03.737Z,75.20
2023-01-27T02:20:13.576Z,102.00
2023-01-27T02:24:37.772Z,104.90
2023-01-27T02:28:48.863Z,118.30
2023-01-27T02:32:36.164Z,127.30
2023-01-27T02:37:23.371Z,95.40
2023-01-27T02:41:19.574Z,95.10
2023-01-27T02:45:51.216Z,86.00
2023-01-27T02:49:55.990Z,61.70
2023-01-27T02:53:44.536Z,69.50
2023-01-27T02:57:44.586Z,80.90
2023-01-27T03:02:09.354Z,67.10
2023-01-27T03:06:16.585Z,65.00
2023-01-27T03:10:32.582Z,61.90
2023-01-27T03:15:02.305Z,68.60
2023-01-27T03:19:21.697Z,83.70
2023-01-27T03:23:43.590Z,81.90
2023-01-27T03:27:44.581Z,84.60
2023-01-27T03:31:59.713Z,70.60
2023-01-27T03:36:05.443Z,68.90
2023-01-27T03:40:16.144Z,80.30
2023-01-27T03:44:13.497Z,78.00
2023-01-27T03:48:27.807Z,73.70
2023-01-27T03:52:45.616Z,54.20
2023-01-27T03:56:42.035Z,76.00
2023-01-27T04:01:18.220Z,63.10
2023-01-27T04:05:59.247Z,58.70
2023-01-27T04:18:57.741Z,64.00
2023-01-27T04:23:16.998Z,53.00
2023-01-27T04:27:38.767Z,56.30
2023-01-27T04:31:39.940Z,50.40
2023-01-27T04:35:38.388Z,58.50
2023-01-27T04:39:09.621Z,49.80
2023-01-27T04:43:29.687Z,68.40
2023-01-27T04:47:54.686Z,72.70
2023-01-27T04:52:04.826Z,82.70
2023-01-27T05:00:48.276Z,75.30
2023-01-27T05:05:12.267Z,73.90
2023-01-27T05:09:16.173Z,69.30
2023-01-27T07:51:12.572Z,74.90
2023-01-27T08:12:43.151Z,67.00
2023-01-27T08:28:09.379Z,58.20
2023-01-27T08:35:49.400Z,52.40
2023-01-27T08:46:25.463Z,65.50
2023-01-27T08:54:21.916Z,62.00
2023-01-27T09:05:47.455Z,52.80
2023-01-27T09:09:25.439Z,61.50
2023-01-27T09:16:45.474Z,54.00
2023-01-27T09:20:43.482Z,52.80
2023-01-27T09:24:40.374Z,52.60
2023-01-27T09:28:34.400Z,57.10
2023-01-27T09:35:47.476Z,70.10
2023-01-27T09:39:50.050Z,54.10
2023-01-27T09:43:41.569Z,57.10
2023-01-27T09:52:08.514Z,54.10
2023-01-27T10:12:44.169Z,57.50
2023-01-27T10:17:15.027Z,68.60
2023-01-27T10:24:01.510Z,62.80
2023-01-27T10:31:57.228Z,54.80
2023-01-27T10:39:50.208Z,31.00
2023-01-27T10:43:34.307Z,54.20
2023-01-27T10:54:59.195Z,63.10
2023-01-27T10:58:49.190Z,74.60
2023-01-27T11:06:31.420Z,69.40
2023-01-27T11:10:27.232Z,80.70
2023-01-27T11:18:05.266Z,63.70
2023-01-27T11:22:09.105Z,65.80
2023-01-27T11:25:58.385Z,51.30
2023-01-27T11:33:30.210Z,70.00
2023-01-27T11:41:16.249Z,71.70
2023-01-27T11:45:12.269Z,50.40
2023-01-27T11:52:46.276Z,73.40
2023-01-27T11:56:32.168Z,54.50
2023-01-27T12:00:38.260Z,33.30
2023-01-27T12:08:12.196Z,54.10
2023-01-27T12:12:13.254Z,27.50
2023-01-27T12:27:11.316Z,61.10
2023-01-27T12:30:39.166Z,61.60
2023-01-27T12:49:44.201Z,64.30
2023-01-27T13:01:22.289Z,53.00
2023-01-27T13:04:56.276Z,47.80
2023-01-27T16:52:14.476Z,57.90
2023-01-27T16:59:52.642Z,50.20
2023-01-27T17:04:29.554Z,32.90
2023-01-27T17:08:09.443Z,25.80
2023-01-27T17:19:17.634Z,29.90
2023-01-27T17:23:27.773Z,29.20
2023-01-27T17:28:09.477Z,28.70
2023-01-27T17:32:18.060Z,60.70
2023-01-27T17:36:37.605Z,26.70
2023-01-27T17:40:26.746Z,30.80
2023-01-27T17:44:26.568Z,42.70
2023-01-27T17:48:29.242Z,44.20
2023-01-27T17:52:43.015Z,49.00
2023-01-27T17:56:38.757Z,54.40
2023-01-27T18:00:38.273Z,42.40
2023-01-27T18:04:33.065Z,48.00
2023-01-27T18:08:18.346Z,26.60
2023-01-27T18:12:15.402Z,42.20
2023-01-27T18:16:24.637Z,37.50
2023-01-27T18:20:20.776Z,33.70
2023-01-27T18:24:29.123Z,26.30
2023-01-27T18:28:24.318Z,44.20
2023-01-27T18:32:38.141Z,46.10
2023-01-27T18:36:47.146Z,42.70
2023-01-27T18:48:25.644Z,48.20
2023-01-27T18:51:50.550Z,55.90
2023-01-27T18:55:53.794Z,45.10
2023-01-27T19:04:17.024Z,55.70
2023-01-27T19:11:06.623Z,58.10
2023-01-27T19:18:59.653Z,47.60
2023-01-27T19:22:40.658Z,52.20
2023-01-27T19:36:23.658Z,48.90
2023-01-27T19:48:52.794Z,54.20
2023-01-27T19:52:41.510Z,50.50
2023-01-27T19:56:13.601Z,50.30
2023-01-27T20:11:44.828Z,51.40
2023-01-27T20:18:31.831Z,50.00
2023-01-27T20:22:04.802Z,51.30
2023-01-27T20:25:42.862Z,48.50
2023-01-27T20:29:41.858Z,49.70
2023-01-27T20:33:16.216Z,48.90
2023-01-27T20:40:59.434Z,48.50
2023-01-27T20:44:31.858Z,39.30
2023-01-27T20:52:27.796Z,57.40
2023-01-27T20:56:18.863Z,45.70
2023-01-27T21:04:20.078Z,54.30
2023-01-27T21:15:14.255Z,52.80
2023-01-27T21:19:09.081Z,45.80
2023-01-27T21:26:25.061Z,64.60
2023-01-27T21:30:32.079Z,67.50
2023-01-27T21:34:35.051Z,70.50
2023-01-27T21:38:20.671Z,47.30
2023-01-27T21:42:07.096Z,32.60
2023-01-27T21:49:42.103Z,49.40
2023-01-27T21:53:38.127Z,59.20
2023-01-27T21:57:31.149Z,58.00
2023-01-27T22:01:02.171Z,26.70
2023-01-27T22:04:37.699Z,33.60
2023-01-27T22:40:40.613Z,46.60
2023-01-27T22:48:25.425Z,72.90
2023-01-27T22:52:12.717Z,56.40
2023-01-27T22:55:51.624Z,42.60
2023-01-27T22:59:35.667Z,29.30
2023-01-27T23:03:12.636Z,26.30
2023-01-27T23:10:27.622Z,65.40
2023-01-27T23:14:25.613Z,35.70
2023-01-27T23:25:37.691Z,30.90
2023-01-27T23:29:46.681Z,42.40
2023-01-27T23:33:48.714Z,73.40
2023-01-27T23:38:32.098Z,43.00
2023-01-27T23:42:32.632Z,45.80
2023-01-27T23:46:09.698Z,50.10
2023-01-27T23:49:41.704Z,43.20
2023-01-27T23:53:37.686Z,54.60
2023-01-27T23:57:41.702Z,44.30
